Time;durP1;ratioP1;P1;durP2;ratioP2;P2;SDS_P1;SDS_P2;PMS_P1;PMS_P2;Temp;Humidity;BMP_temperature;BMP_pressure;BME280_temperature;BME280_humidity;BME280_pressure;Samples;Min_cycle;Max_cycle;Signal;HPM_P1;HPM_P2
2022/03/22 00:00:35;;;;;;;17.02;8.93;;;;;;;;;;4998065;28;20023;-84
2022/03/22 00:03:02;;;;;;;20.77;9.35;;;;;;;;;;4998385;28;20042;-82
2022/03/22 00:05:28;;;;;;;16.70;8.85;;;;;;;;;;4996194;28;20019;-84
2022/03/22 00:07:54;;;;;;;15.13;8.60;;;;;;;;;;4995957;28;20030;-84
2022/03/22 00:10:20;;;;;;;16.52;8.95;;;;;;;;;;4997163;28;20018;-82
2022/03/22 00:12:48;;;;;;;15.63;9.50;;;;;;;;;;4995949;28;20052;-84
2022/03/22 00:15:15;;;;;;;21.08;9.13;;;;;;;;;;4995451;28;20022;-85
2022/03/22 00:17:41;;;;;;;20.10;8.82;;;;;;;;;;4990721;28;20037;-85
2022/03/22 00:20:10;;;;;;;19.33;9.13;;;;;;;;;;4996745;28;20064;-83
2022/03/22 00:22:36;;;;;;;16.67;8.60;;;;;;;;;;4994935;28;20410;-83
2022/03/22 00:25:02;;;;;;;16.33;8.90;;;;;;;;;;4996311;28;20045;-84
2022/03/22 00:27:28;;;;;;;16.63;8.70;;;;;;;;;;4996078;28;20034;-83
2022/03/22 00:29:54;;;;;;;14.13;8.70;;;;;;;;;;4995761;28;20026;-84
2022/03/22 00:32:20;;;;;;;19.30;8.25;;;;;;;;;;4995128;28;20026;-84
2022/03/22 00:34:46;;;;;;;13.48;8.27;;;;;;;;;;4994836;28;20050;-84
2022/03/22 00:37:15;;;;;;;22.02;9.27;;;;;;;;;;4994769;28;20028;-83
2022/03/22 00:39:42;;;;;;;18.85;9.27;;;;;;;;;;4996144;28;20033;-84
2022/03/22 00:42:09;;;;;;;15.52;9.25;;;;;;;;;;4982516;28;20031;-85
2022/03/22 00:44:36;;;;;;;17.50;8.63;;;;;;;;;;4993560;28;20114;-85
2022/03/22 00:47:03;;;;;;;13.02;8.13;;;;;;;;;;5012837;28;20029;-82
2022/03/22 00:49:29;;;;;;;20.48;8.88;;;;;;;;;;5001205;28;20045;-87
2022/03/22 00:51:55;;;;;;;16.30;8.73;;;;;;;;;;4996470;28;20030;-83
2022/03/22 00:54:21;;;;;;;14.88;8.50;;;;;;;;;;4994981;28;20101;-84
2022/03/22 00:56:48;;;;;;;14.70;7.85;;;;;;;;;;4995002;28;20038;-83
2022/03/22 01:01:58;;;;;;;12.13;8.35;;;;;;;;;;4996358;28;20049;-85
2022/03/22 01:04:24;;;;;;;16.38;8.48;;;;;;;;;;4996176;28;20434;-83
2022/03/22 01:06:50;;;;;;;14.13;8.70;;;;;;;;;;4995868;28;20044;-85
2022/03/22 01:09:17;;;;;;;19.35;8.43;;;;;;;;;;4996676;28;20026;-83
2022/03/22 01:11:43;;;;;;;15.70;8.57;;;;;;;;;;4996590;28;20041;-83
2022/03/22 01:14:09;;;;;;;17.52;9.55;;;;;;;;;;4996945;28;20143;-86
2022/03/22 01:16:35;;;;;;;18.00;8.93;;;;;;;;;;4996514;28;20045;-85
2022/03/22 01:19:01;;;;;;;15.55;8.82;;;;;;;;;;4987162;28;20038;-83
2022/03/22 01:21:28;;;;;;;18.83;8.15;;;;;;;;;;4996323;28;20026;-84
2022/03/22 01:23:54;;;;;;;17.00;9.30;;;;;;;;;;4994761;28;20030;-83
2022/03/22 01:26:20;;;;;;;15.48;8.55;;;;;;;;;;4996466;28;20026;-82
2022/03/22 01:28:46;;;;;;;15.07;8.82;;;;;;;;;;4996367;28;20033;-83
2022/03/22 01:31:12;;;;;;;17.35;8.55;;;;;;;;;;4996026;28;20026;-82
2022/03/22 01:33:38;;;;;;;14.60;8.18;;;;;;;;;;4994478;28;20049;-84
2022/03/22 01:36:04;;;;;;;15.25;7.80;;;;;;;;;;4994598;28;20117;-83
2022/03/22 01:38:30;;;;;;;13.38;7.13;;;;;;;;;;4995298;28;20030;-83
2022/03/22 01:40:56;;;;;;;16.65;8.00;;;;;;;;;;4997826;28;20522;-82
2022/03/22 01:43:22;;;;;;;11.02;7.65;;;;;;;;;;4999590;28;20030;-83
2022/03/22 01:45:49;;;;;;;15.27;8.55;;;;;;;;;;4998880;28;20030;-83
2022/03/22 01:48:15;;;;;;;15.82;8.50;;;;;;;;;;4998856;28;20455;-82
2022/03/22 01:50:42;;;;;;;19.23;8.57;;;;;;;;;;4999788;28;20030;-84
2022/03/22 01:53:09;;;;;;;18.10;8.30;;;;;;;;;;4999356;28;20054;-84
2022/03/22 01:55:35;;;;;;;17.58;7.82;;;;;;;;;;4999096;28;20033;-83
2022/03/22 01:58:01;;;;;;;13.90;7.63;;;;;;;;;;4998770;28;20052;-81
2022/03/22 02:00:27;;;;;;;16.65;7.90;;;;;;;;;;4997157;28;20490;-82
2022/03/22 02:05:51;;;;;;;13.68;7.70;;;;;;;;;;4998229;28;20044;-82
2022/03/22 02:08:18;;;;;;;13.57;8.40;;;;;;;;;;4997641;28;20041;-82
2022/03/22 02:10:44;;;;;;;16.05;7.93;;;;;;;;;;4996955;28;20402;-83
2022/03/22 02:13:10;;;;;;;15.48;8.63;;;;;;;;;;4997151;28;20026;-85
2022/03/22 02:15:36;;;;;;;15.77;8.35;;;;;;;;;;4997064;28;20036;-82
2022/03/22 02:18:03;;;;;;;13.43;8.00;;;;;;;;;;4998354;28;20027;-81
2022/03/22 02:20:29;;;;;;;12.77;7.75;;;;;;;;;;4997718;28;20056;-82
2022/03/22 02:23:01;;;;;;;13.55;8.18;;;;;;;;;;4998095;28;20445;-84
2022/03/22 02:25:27;;;;;;;12.23;7.63;;;;;;;;;;4997705;28;20023;-84
2022/03/22 02:27:53;;;;;;;17.85;7.78;;;;;;;;;;4998084;28;20078;-84
2022/03/22 02:30:19;;;;;;;13.60;7.97;;;;;;;;;;4997601;28;20038;-82
2022/03/22 02:32:49;;;;;;;14.38;8.00;;;;;;;;;;4997869;28;20038;-84
2022/03/22 02:35:15;;;;;;;14.27;8.05;;;;;;;;;;4996644;28;20375;-83
2022/03/22 02:37:41;;;;;;;12.93;7.28;;;;;;;;;;4998160;28;20033;-85
2022/03/22 02:40:08;;;;;;;16.40;8.50;;;;;;;;;;4996244;28;20154;-83
2022/03/22 02:42:34;;;;;;;12.70;7.40;;;;;;;;;;5000976;28;20561;-83
2022/03/22 02:45:00;;;;;;;13.45;7.63;;;;;;;;;;5014698;28;20054;-83
2022/03/22 02:47:26;;;;;;;16.42;7.22;;;;;;;;;;5002692;28;20065;-85
2022/03/22 02:49:52;;;;;;;13.23;7.55;;;;;;;;;;4998381;28;20022;-83
2022/03/22 02:52:18;;;;;;;17.23;8.10;;;;;;;;;;4996671;28;20034;-83
2022/03/22 02:54:44;;;;;;;12.98;8.27;;;;;;;;;;4996267;28;20130;-83
2022/03/22 02:57:10;;;;;;;14.75;7.90;;;;;;;;;;4999210;28;20027;-83
2022/03/22 02:59:36;;;;;;;13.73;8.10;;;;;;;;;;4999313;28;20385;-82
2022/03/22 03:02:03;;;;;;;17.13;8.00;;;;;;;;;;4998901;28;20026;-82
2022/03/22 03:04:29;;;;;;;18.27;8.32;;;;;;;;;;4998513;28;20036;-83
2022/03/22 03:06:55;;;;;;;14.60;8.48;;;;;;;;;;4999618;28;20070;-82
2022/03/22 03:09:21;;;;;;;15.88;7.65;;;;;;;;;;5000759;28;20026;-82
2022/03/22 03:11:47;;;;;;;16.27;8.70;;;;;;;;;;5001717;28;20030;-81
2022/03/22 03:16:57;;;;;;;16.05;8.15;;;;;;;;;;5001329;28;20042;-83
2022/03/22 03:19:23;;;;;;;11.88;7.57;;;;;;;;;;5000564;28;20038;-81
2022/03/22 03:21:49;;;;;;;15.07;8.15;;;;;;;;;;5000095;28;20027;-84
2022/03/22 03:24:15;;;;;;;13.75;8.23;;;;;;;;;;4998702;28;20042;-82
2022/03/22 03:26:41;;;;;;;13.02;8.05;;;;;;;;;;4999943;28;20022;-82
2022/03/22 03:29:09;;;;;;;16.70;9.00;;;;;;;;;;5000048;28;20081;-82
2022/03/22 03:31:35;;;;;;;15.82;9.07;;;;;;;;;;4999541;28;20387;-83
2022/03/22 03:34:04;;;;;;;16.20;8.77;;;;;;;;;;5001166;28;20465;-80
2022/03/22 03:36:30;;;;;;;16.63;8.25;;;;;;;;;;5000990;28;20089;-82
2022/03/22 03:38:56;;;;;;;15.77;8.45;;;;;;;;;;5001216;28;20417;-82
2022/03/22 03:47:11;;;;;;;14.57;7.85;;;;;;;;;;4998994;28;20122;-82
2022/03/22 03:49:38;;;;;;;15.13;8.65;;;;;;;;;;4999940;28;20019;-82
2022/03/22 03:52:09;;;;;;;13.65;7.68;;;;;;;;;;4999022;28;20027;-81
2022/03/22 03:54:35;;;;;;;13.50;8.10;;;;;;;;;;4999435;28;20101;-82
2022/03/22 03:57:01;;;;;;;16.27;8.88;;;;;;;;;;4999723;28;20074;-82
2022/03/22 03:59:28;;;;;;;15.40;8.35;;;;;;;;;;4998656;28;20026;-84
2022/03/22 04:01:54;;;;;;;14.68;9.07;;;;;;;;;;4999060;28;20106;-83
2022/03/22 04:04:20;;;;;;;16.27;8.13;;;;;;;;;;4997916;28;20446;-82
2022/03/22 04:06:47;;;;;;;16.55;8.93;;;;;;;;;;4999602;28;20053;-83
2022/03/22 04:09:13;;;;;;;13.80;8.57;;;;;;;;;;4998234;28;20022;-82
2022/03/22 04:11:39;;;;;;;14.30;8.02;;;;;;;;;;4998865;28;20038;-82
2022/03/22 04:14:06;;;;;;;20.40;9.10;;;;;;;;;;4997162;28;20023;-81
2022/03/22 04:16:32;;;;;;;16.55;8.07;;;;;;;;;;4996447;28;20018;-83
2022/03/22 04:18:58;;;;;;;15.57;9.05;;;;;;;;;;4996771;28;20090;-83
2022/03/22 04:21:24;;;;;;;14.13;8.30;;;;;;;;;;4991352;28;20119;-82
2022/03/22 04:23:50;;;;;;;19.55;8.63;;;;;;;;;;4978010;28;20124;-83
2022/03/22 04:26:16;;;;;;;13.48;8.50;;;;;;;;;;4993433;28;20022;-82
2022/03/22 04:34:19;;;;;;;13.75;8.65;;;;;;;;;;5036797;23;20060;-82
2022/03/22 04:36:55;;;;;;;18.38;8.27;;;;;;;;;;5032718;28;20022;-81
2022/03/22 04:39:21;;;;;;;16.85;7.85;;;;;;;;;;5022388;28;20500;-80
2022/03/22 04:41:47;;;;;;;17.08;8.15;;;;;;;;;;5015115;28;20080;-81
2022/03/22 04:44:13;;;;;;;14.13;8.45;;;;;;;;;;5033925;28;20385;-81
2022/03/22 04:46:38;;;;;;;17.98;8.52;;;;;;;;;;5035965;28;20025;-81
2022/03/22 04:49:04;;;;;;;14.02;8.32;;;;;;;;;;5033470;28;20029;-81
2022/03/22 04:57:02;;;;;;;14.75;7.80;;;;;;;;;;5032635;28;20123;-81
2022/03/22 04:59:28;;;;;;;19.55;9.15;;;;;;;;;;5039513;28;20085;-83
2022/03/22 05:01:54;;;;;;;16.80;8.82;;;;;;;;;;5044881;28;20034;-83
2022/03/22 05:04:21;;;;;;;18.02;8.88;;;;;;;;;;5045168;28;20025;-81
2022/03/22 05:06:47;;;;;;;14.98;8.57;;;;;;;;;;5036896;28;20057;-82
2022/03/22 05:09:13;;;;;;;20.15;8.93;;;;;;;;;;5035570;28;20129;-82
2022/03/22 05:11:39;;;;;;;22.05;8.75;;;;;;;;;;5035708;28;20028;-83
2022/03/22 05:14:05;;;;;;;17.00;8.95;;;;;;;;;;5035404;28;20052;-83
2022/03/22 05:16:31;;;;;;;16.88;8.63;;;;;;;;;;5042640;28;20037;-82
2022/03/22 05:18:58;;;;;;;17.60;8.98;;;;;;;;;;5041589;28;20125;-81
2022/03/22 05:21:25;;;;;;;15.13;8.35;;;;;;;;;;5038234;28;20034;-82
2022/03/22 05:23:51;;;;;;;18.35;9.68;;;;;;;;;;5038064;28;20129;-82
2022/03/22 05:26:17;;;;;;;15.35;8.73;;;;;;;;;;5038783;28;20059;-82
2022/03/22 05:28:44;;;;;;;15.32;8.63;;;;;;;;;;5008487;28;20030;-81
2022/03/22 05:31:14;;;;;;;22.08;9.25;;;;;;;;;;5017558;28;20030;-81
2022/03/22 05:33:40;;;;;;;17.58;9.38;;;;;;;;;;5035701;28;20097;-78
2022/03/22 05:36:07;;;;;;;18.70;8.48;;;;;;;;;;5044020;28;20040;-82
2022/03/22 05:38:33;;;;;;;14.40;8.85;;;;;;;;;;5033001;28;20064;-83
2022/03/22 05:41:02;;;;;;;18.60;9.10;;;;;;;;;;5038572;28;20040;-82
2022/03/22 05:43:28;;;;;;;15.38;8.48;;;;;;;;;;5019667;28;20032;-83
2022/03/22 05:45:54;;;;;;;15.82;8.70;;;;;;;;;;5020356;28;20064;-84
2022/03/22 05:48:21;;;;;;;21.35;9.13;;;;;;;;;;5032841;28;20037;-82
2022/03/22 05:50:47;;;;;;;16.50;8.93;;;;;;;;;;5019029;28;20037;-83
2022/03/22 05:53:13;;;;;;;14.25;8.40;;;;;;;;;;5034152;28;20030;-82
2022/03/22 05:55:40;;;;;;;14.88;7.65;;;;;;;;;;5028529;28;20030;-82
2022/03/22 05:58:06;;;;;;;14.45;8.80;;;;;;;;;;5035199;28;20474;-84
2022/03/22 06:00:33;;;;;;;16.77;9.32;;;;;;;;;;5036902;28;20022;-84
2022/03/22 06:02:59;;;;;;;14.63;8.52;;;;;;;;;;5032777;28;20029;-82
2022/03/22 06:05:25;;;;;;;18.17;9.75;;;;;;;;;;5021607;28;20025;-82
2022/03/22 06:07:51;;;;;;;18.67;9.15;;;;;;;;;;5038901;28;20030;-83
2022/03/22 06:10:18;;;;;;;13.82;8.43;;;;;;;;;;5037370;28;20046;-82
2022/03/22 06:12:45;;;;;;;15.82;9.07;;;;;;;;;;5054893;28;20120;-81
2022/03/22 06:15:16;;;;;;;26.13;10.20;;;;;;;;;;5045144;28;20468;-80
2022/03/22 06:17:49;;;;;;;19.25;9.43;;;;;;;;;;5031694;28;20034;-83
2022/03/22 06:20:15;;;;;;;15.57;9.52;;;;;;;;;;5010490;28;20028;-82
2022/03/22 06:22:41;;;;;;;17.77;9.20;;;;;;;;;;5017656;28;20481;-81
2022/03/22 06:25:19;;;;;;;18.40;9.75;;;;;;;;;;5005028;28;20058;-81
2022/03/22 06:27:46;;;;;;;18.33;9.52;;;;;;;;;;5039680;28;20113;-81
2022/03/22 06:30:28;;;;;;;20.13;9.93;;;;;;;;;;5039965;28;20429;-81
2022/03/22 06:33:29;;;;;;;17.38;8.90;;;;;;;;;;5039917;28;20033;-81
2022/03/22 06:36:10;;;;;;;14.25;8.80;;;;;;;;;;5003405;28;20124;-80
2022/03/22 06:38:37;;;;;;;19.77;9.35;;;;;;;;;;5039809;28;20426;-81
2022/03/22 06:41:03;;;;;;;19.25;8.23;;;;;;;;;;5037988;28;20030;-81
2022/03/22 06:43:41;;;;;;;50.00;21.20;;;;;;;;;;5015997;28;20519;-81
2022/03/22 06:46:13;;;;;;;66.50;28.65;;;;;;;;;;5024061;28;20098;-81
2022/03/22 06:48:39;;;;;;;24.75;13.60;;;;;;;;;;5041281;28;20024;-81
2022/03/22 06:51:05;;;;;;;17.83;9.65;;;;;;;;;;5040576;28;20461;-82
2022/03/22 06:53:31;;;;;;;17.73;9.07;;;;;;;;;;5041398;28;20036;-81
2022/03/22 06:59:30;;;;;;;13.68;8.40;;;;;;;;;;4900188;29;20103;-82
2022/03/22 07:01:56;;;;;;;16.15;8.23;;;;;;;;;;5027700;28;20369;-80
2022/03/22 07:04:23;;;;;;;16.75;8.80;;;;;;;;;;5040441;28;20025;-80
2022/03/22 07:06:49;;;;;;;15.88;8.90;;;;;;;;;;5039545;28;20451;-80
2022/03/22 07:09:14;;;;;;;17.50;8.73;;;;;;;;;;5040478;28;20064;-80
2022/03/22 07:11:50;;;;;;;14.88;8.35;;;;;;;;;;5038796;28;20037;-80
2022/03/22 07:14:23;;;;;;;15.98;8.73;;;;;;;;;;5021620;28;20030;-80
2022/03/22 07:16:49;;;;;;;16.02;9.27;;;;;;;;;;5032292;28;20116;-81
2022/03/22 07:19:15;;;;;;;19.30;9.63;;;;;;;;;;5037905;28;20093;-82
2022/03/22 07:21:42;;;;;;;17.23;9.52;;;;;;;;;;5039246;28;20354;-81
2022/03/22 07:24:08;;;;;;;16.13;9.32;;;;;;;;;;5027625;28;20087;-82
2022/03/22 07:26:34;;;;;;;16.95;8.02;;;;;;;;;;5020490;28;20033;-81
2022/03/22 07:29:03;;;;;;;17.90;9.48;;;;;;;;;;5007602;28;20029;-79
2022/03/22 07:31:29;;;;;;;15.90;9.27;;;;;;;;;;5050836;28;20029;-80
2022/03/22 07:33:56;;;;;;;14.80;8.50;;;;;;;;;;5025334;28;20037;-81
2022/03/22 07:36:22;;;;;;;14.68;8.63;;;;;;;;;;5039605;28;20033;-82
2022/03/22 07:38:48;;;;;;;18.67;10.23;;;;;;;;;;5020468;28;20030;-81
2022/03/22 07:41:14;;;;;;;17.92;10.13;;;;;;;;;;5038899;28;20257;-80
2022/03/22 07:43:41;;;;;;;18.65;10.07;;;;;;;;;;5023692;28;20037;-81
2022/03/22 07:46:15;;;;;;;18.27;9.52;;;;;;;;;;5040343;28;20176;-81
2022/03/22 07:48:44;;;;;;;17.05;10.70;;;;;;;;;;5021098;28;20060;-81
2022/03/22 07:53:54;;;;;;;18.30;10.40;;;;;;;;;;5042271;28;20409;-81
2022/03/22 07:56:32;;;;;;;18.42;10.30;;;;;;;;;;5004131;28;20094;-81
2022/03/22 07:59:25;;;;;;;21.80;10.30;;;;;;;;;;5033808;28;20029;-81
2022/03/22 08:02:25;;;;;;;19.15;10.63;;;;;;;;;;5020555;28;20199;-81
2022/03/22 08:07:54;;;;;;;;;;;;;;;;;;;;;
2022/03/22 08:13:21;;;;;;;20.35;10.38;;;;;;;;;;5035325;28;20033;-81
2022/03/22 08:15:47;;;;;;;19.45;10.48;;;;;;;;;;5034976;28;20032;-79
2022/03/22 08:18:13;;;;;;;18.02;10.70;;;;;;;;;;5025309;28;20040;-81
2022/03/22 08:20:39;;;;;;;20.08;10.75;;;;;;;;;;5021221;28;20041;-81
2022/03/22 08:23:10;;;;;;;22.90;12.50;;;;;;;;;;5032862;28;20401;-82
2022/03/22 08:35:32;;;;;;;20.65;10.23;;;;;;;;;;4946888;28;20038;-83
2022/03/22 08:37:58;;;;;;;19.08;10.25;;;;;;;;;;5034151;28;20040;-83
2022/03/22 08:40:24;;;;;;;18.42;10.10;;;;;;;;;;5034119;28;20026;-83
2022/03/22 08:42:53;;;;;;;17.88;10.23;;;;;;;;;;5018520;28;20072;-81
2022/03/22 08:45:20;;;;;;;17.67;9.70;;;;;;;;;;5016165;28;20034;-80
2022/03/22 08:48:09;;;;;;;16.35;10.30;;;;;;;;;;5028963;28;20109;-82
2022/03/22 08:50:45;;;;;;;15.52;9.68;;;;;;;;;;5018674;28;20056;-78
2022/03/22 08:53:30;;;;;;;17.20;9.05;;;;;;;;;;5000137;28;20091;-82
2022/03/22 08:55:56;;;;;;;15.20;9.57;;;;;;;;;;4981838;28;20034;-80
2022/03/22 08:58:22;;;;;;;16.73;10.60;;;;;;;;;;5018177;28;20022;-82
2022/03/22 09:00:49;;;;;;;15.95;9.82;;;;;;;;;;5024710;28;20025;-81
2022/03/22 09:03:22;;;;;;;18.20;9.57;;;;;;;;;;5036955;28;20430;-82
2022/03/22 09:09:24;;;;;;;14.57;10.32;;;;;;;;;;5021081;28;20052;-82
2022/03/22 09:12:06;;;;;;;15.27;10.32;;;;;;;;;;5041876;28;20113;-82
2022/03/22 09:14:32;;;;;;;15.68;10.07;;;;;;;;;;5021744;28;20125;-83
2022/03/22 09:17:09;;;;;;;14.32;9.85;;;;;;;;;;5039885;28;20045;-81
2022/03/22 09:22:35;;;;;;;17.63;9.82;;;;;;;;;;4944362;28;20436;-81
2022/03/22 09:25:01;;;;;;;13.48;10.38;;;;;;;;;;5025717;28;20088;-84
2022/03/22 09:27:27;;;;;;;12.02;9.13;;;;;;;;;;5034138;28;20034;-83
2022/03/22 09:29:53;;;;;;;18.05;11.05;;;;;;;;;;5020174;28;20066;-83
2022/03/22 09:32:19;;;;;;;13.73;9.98;;;;;;;;;;5036613;28;20029;-84
2022/03/22 09:34:45;;;;;;;15.48;10.52;;;;;;;;;;5040075;28;20135;-84
2022/03/22 09:37:16;;;;;;;12.80;10.00;;;;;;;;;;5042528;28;20032;-82
2022/03/22 09:39:51;;;;;;;14.48;10.43;;;;;;;;;;5023620;28;20095;-83
2022/03/22 09:42:17;;;;;;;13.75;9.38;;;;;;;;;;5036457;28;20021;-84
2022/03/22 09:44:50;;;;;;;13.00;9.50;;;;;;;;;;5031125;28;20033;-84
2022/03/22 09:47:16;;;;;;;14.15;10.65;;;;;;;;;;5032687;28;20026;-84
2022/03/22 09:49:43;;;;;;;13.07;10.18;;;;;;;;;;5015336;28;20030;-83
2022/03/22 09:52:10;;;;;;;12.48;9.77;;;;;;;;;;5031319;28;20026;-84
2022/03/22 09:54:36;;;;;;;11.45;9.63;;;;;;;;;;5031426;28;20037;-84
2022/03/22 09:57:05;;;;;;;12.82;9.43;;;;;;;;;;5027868;28;20433;-83
2022/03/22 09:59:34;;;;;;;18.13;10.52;;;;;;;;;;5032714;28;20050;-82
2022/03/22 10:02:10;;;;;;;17.50;10.38;;;;;;;;;;5023269;28;20022;-83
2022/03/22 10:04:43;;;;;;;15.55;10.82;;;;;;;;;;5024754;28;20014;-83
2022/03/22 10:07:20;;;;;;;14.38;10.73;;;;;;;;;;5040140;28;20604;-83
2022/03/22 10:09:56;;;;;;;12.63;9.75;;;;;;;;;;5011247;28;20023;-84
2022/03/22 10:12:35;;;;;;;17.98;11.23;;;;;;;;;;5046407;28;20052;-83
2022/03/22 10:15:14;;;;;;;13.43;10.32;;;;;;;;;;5052073;28;20105;-84
2022/03/22 10:17:41;;;;;;;14.20;10.27;;;;;;;;;;5042980;28;20036;-84
2022/03/22 10:20:08;;;;;;;10.35;8.55;;;;;;;;;;5035474;28;20021;-84
2022/03/22 10:22:35;;;;;;;16.92;10.35;;;;;;;;;;5028241;28;20691;-83
2022/03/22 10:25:03;;;;;;;15.80;9.90;;;;;;;;;;5012127;28;20023;-81
2022/03/22 10:27:38;;;;;;;18.10;9.25;;;;;;;;;;5036637;28;20054;-82
2022/03/22 10:30:06;;;;;;;15.02;9.40;;;;;;;;;;5028800;28;20022;-83
2022/03/22 10:32:36;;;;;;;12.90;9.20;;;;;;;;;;5039917;28;20029;-83
2022/03/22 10:35:21;;;;;;;10.15;8.38;;;;;;;;;;5048371;22;20053;-87
2022/03/22 10:38:00;;;;;;;10.38;8.45;;;;;;;;;;4994474;28;20029;-89
2022/03/22 10:40:55;;;;;;;12.77;8.98;;;;;;;;;;4987990;28;20448;-90
2022/03/22 10:43:23;;;;;;;11.88;9.05;;;;;;;;;;4980293;28;20061;-89
2022/03/22 10:46:02;;;;;;;13.85;8.75;;;;;;;;;;5018632;28;20025;-89
2022/03/22 10:48:34;;;;;;;14.52;8.70;;;;;;;;;;5019147;28;20044;-87
2022/03/22 10:51:01;;;;;;;12.00;7.93;;;;;;;;;;5001450;28;20018;-89
2022/03/22 10:53:29;;;;;;;11.98;9.50;;;;;;;;;;4976705;28;20029;-89
2022/03/22 10:55:57;;;;;;;11.15;9.50;;;;;;;;;;4997617;28;20045;-90
2022/03/22 10:58:28;;;;;;;14.35;10.30;;;;;;;;;;4980077;28;20030;-90
2022/03/22 11:00:57;;;;;;;;;;;;;;;;;;4980973;28;20030;-88
2022/03/22 11:03:26;;;;;;;12.32;8.65;;;;;;;;;;5005392;28;19964;-85
2022/03/22 11:05:53;;;;;;;13.02;9.07;;;;;;;;;;4987474;28;20019;-85
2022/03/22 11:08:19;;;;;;;11.48;8.45;;;;;;;;;;4996787;28;20029;-85
2022/03/22 11:10:46;;;;;;;14.57;9.65;;;;;;;;;;4989896;28;20033;-86
2022/03/22 11:13:12;;;;;;;12.90;9.10;;;;;;;;;;5001730;28;20018;-85
2022/03/22 11:15:43;;;;;;;11.80;9.50;;;;;;;;;;5001572;28;20034;-86
2022/03/22 11:18:08;;;;;;;;;;;;;;;;;;5012194;28;20468;-85
2022/03/22 11:20:34;;;;;;;13.32;9.40;;;;;;;;;;5007989;28;19909;-85
2022/03/22 11:23:01;;;;;;;13.82;9.43;;;;;;;;;;5000689;28;20031;-86
2022/03/22 11:25:36;;;;;;;12.20;9.00;;;;;;;;;;4992133;28;20289;-85
2022/03/22 11:28:05;;;;;;;11.55;9.55;;;;;;;;;;5003775;28;20376;-84
2022/03/22 11:34:12;;;;;;;11.68;8.93;;;;;;;;;;4906858;29;20108;-84
2022/03/22 11:37:08;;;;;;;16.98;8.75;;;;;;;;;;4980845;28;20034;-88
2022/03/22 11:42:28;;;;;;;13.85;9.05;;;;;;;;;;4982968;28;20414;-86
2022/03/22 11:45:16;;;;;;;11.48;8.00;;;;;;;;;;5012873;28;20458;-85
2022/03/22 11:47:43;;;;;;;11.48;8.68;;;;;;;;;;4972685;28;20035;-86
2022/03/22 11:50:13;;;;;;;11.45;8.48;;;;;;;;;;4993282;28;20030;-86
2022/03/22 11:52:40;;;;;;;16.40;8.83;;;;;;;;;;4990834;28;20136;-87
2022/03/22 11:55:14;;;;;;;16.98;9.10;;;;;;;;;;4994650;28;20034;-86
2022/03/22 11:57:47;;;;;;;15.88;9.63;;;;;;;;;;4994314;28;20089;-84
2022/03/22 12:00:14;;;;;;;13.52;8.77;;;;;;;;;;4995873;28;20084;-86
2022/03/22 12:02:42;;;;;;;11.10;8.32;;;;;;;;;;5010349;28;20592;-85
2022/03/22 12:05:09;;;;;;;13.35;8.68;;;;;;;;;;5000573;28;20038;-85
2022/03/22 12:07:36;;;;;;;13.02;9.00;;;;;;;;;;4983579;28;20286;-85
2022/03/22 12:10:08;;;;;;;11.95;8.77;;;;;;;;;;5000593;28;20451;-84
2022/03/22 12:12:35;;;;;;;12.63;8.73;;;;;;;;;;5002219;28;20057;-85
2022/03/22 12:18:01;;;;;;;16.60;9.18;;;;;;;;;;5002286;28;20080;-85
2022/03/22 12:20:27;;;;;;;13.23;9.20;;;;;;;;;;4983550;28;20061;-86
2022/03/22 12:23:00;;;;;;;14.70;9.43;;;;;;;;;;5002007;28;20022;-85
2022/03/22 12:25:29;;;;;;;12.40;9.45;;;;;;;;;;5001126;28;20027;-84
2022/03/22 12:28:01;;;;;;;12.38;8.80;;;;;;;;;;5010760;28;20025;-86
2022/03/22 12:30:32;;;;;;;15.85;8.95;;;;;;;;;;5009346;28;20034;-86
2022/03/22 12:32:59;;;;;;;14.20;9.70;;;;;;;;;;4989585;28;20073;-87
2022/03/22 12:35:26;;;;;;;14.30;9.20;;;;;;;;;;4981503;28;20027;-86
2022/03/22 12:37:53;;;;;;;13.63;9.27;;;;;;;;;;4981145;28;20034;-86
2022/03/22 12:40:33;;;;;;;12.57;8.13;;;;;;;;;;5001711;28;20027;-85
2022/03/22 12:43:03;;;;;;;15.18;8.80;;;;;;;;;;4965578;28;20038;-86
2022/03/22 12:45:42;;;;;;;11.13;8.13;;;;;;;;;;4965971;28;20026;-86
2022/03/22 12:48:08;;;;;;;14.07;9.73;;;;;;;;;;4983875;28;20041;-85
2022/03/22 12:50:34;;;;;;;14.73;9.93;;;;;;;;;;4968945;28;20473;-86
2022/03/22 12:53:00;;;;;;;13.35;9.27;;;;;;;;;;4980182;28;20026;-84
2022/03/22 12:55:27;;;;;;;12.38;9.27;;;;;;;;;;4997886;28;20470;-84
2022/03/22 12:57:56;;;;;;;13.95;9.20;;;;;;;;;;4983285;28;20029;-88
2022/03/22 13:00:28;;;;;;;12.68;8.55;;;;;;;;;;4975654;28;20149;-85
2022/03/22 13:02:55;;;;;;;12.52;9.13;;;;;;;;;;5002251;28;20390;-86
2022/03/22 13:05:28;;;;;;;13.95;8.98;;;;;;;;;;5001594;28;20038;-85
2022/03/22 13:07:54;;;;;;;13.95;8.88;;;;;;;;;;4983189;28;20371;-86
2022/03/22 13:13:16;;;;;;;11.40;8.43;;;;;;;;;;5001426;28;20398;-84
2022/03/22 13:15:47;;;;;;;12.45;9.02;;;;;;;;;;4988975;28;20035;-85
2022/03/22 13:18:13;;;;;;;17.40;9.07;;;;;;;;;;5011931;28;20464;-87
2022/03/22 13:20:40;;;;;;;14.60;8.43;;;;;;;;;;4982869;28;20026;-86
2022/03/22 13:23:08;;;;;;;16.08;10.25;;;;;;;;;;4982052;28;20542;-85
2022/03/22 13:25:38;;;;;;;14.93;9.68;;;;;;;;;;4998946;28;20030;-84
2022/03/22 13:28:04;;;;;;;;;;;;;;;;;;4998401;28;20049;-86
2022/03/22 13:30:31;;;;;;;17.65;10.00;;;;;;;;;;4998741;28;19911;-86
2022/03/22 13:33:10;;;;;;;14.02;9.55;;;;;;;;;;5000065;28;20488;-86
2022/03/22 13:35:37;;;;;;;13.77;10.18;;;;;;;;;;4999740;28;20038;-87
2022/03/22 13:38:05;;;;;;;12.85;9.57;;;;;;;;;;5002152;28;20026;-87
2022/03/22 13:40:36;;;;;;;13.55;9.60;;;;;;;;;;5005737;28;20026;-87
2022/03/22 13:43:04;;;;;;;12.48;9.75;;;;;;;;;;5007872;28;20033;-86
2022/03/22 13:45:31;;;;;;;14.10;9.45;;;;;;;;;;4998360;28;20141;-84
2022/03/22 13:47:58;;;;;;;14.98;9.85;;;;;;;;;;5002358;28;20033;-85
2022/03/22 13:50:27;;;;;;;14.45;9.32;;;;;;;;;;4973535;28;20085;-85
2022/03/22 13:52:59;;;;;;;17.27;10.18;;;;;;;;;;5006591;28;20100;-84
2022/03/22 13:55:29;;;;;;;17.45;9.68;;;;;;;;;;4992925;28;20026;-84
2022/03/22 13:57:55;;;;;;;13.52;9.88;;;;;;;;;;5004823;28;20057;-85
2022/03/22 14:00:21;;;;;;;15.68;9.70;;;;;;;;;;4985610;28;20029;-84
2022/03/22 14:02:48;;;;;;;12.20;8.75;;;;;;;;;;5018888;28;20037;-85
2022/03/22 14:05:14;;;;;;;12.00;8.73;;;;;;;;;;4995408;28;20037;-86
2022/03/22 14:08:02;;;;;;;10.48;8.52;;;;;;;;;;4999571;28;20117;-85
2022/03/22 14:10:28;;;;;;;14.68;8.93;;;;;;;;;;5005729;28;20050;-84
2022/03/22 14:12:54;;;;;;;11.80;7.75;;;;;;;;;;5002777;28;20077;-85
2022/03/22 14:15:20;;;;;;;13.30;8.07;;;;;;;;;;4995781;28;20065;-86
2022/03/22 14:17:47;;;;;;;10.50;7.53;;;;;;;;;;4979755;28;20042;-86
2022/03/22 14:20:13;;;;;;;12.18;8.25;;;;;;;;;;4967712;28;20023;-85
2022/03/22 14:22:41;;;;;;;12.43;8.32;;;;;;;;;;4993358;28;20074;-86
2022/03/22 14:25:08;;;;;;;10.85;8.75;;;;;;;;;;4996519;28;20027;-86
2022/03/22 14:27:34;;;;;;;10.70;8.23;;;;;;;;;;4985760;28;20031;-86
2022/03/22 14:30:04;;;;;;;10.13;8.20;;;;;;;;;;4978326;28;20033;-86
2022/03/22 14:32:30;;;;;;;11.13;7.97;;;;;;;;;;4990704;28;20033;-86
2022/03/22 14:37:41;;;;;;;12.27;8.95;;;;;;;;;;4994911;28;20049;-84
2022/03/22 14:40:08;;;;;;;12.15;8.27;;;;;;;;;;4997888;28;20038;-85
2022/03/22 14:42:34;;;;;;;11.05;8.77;;;;;;;;;;4991998;28;20038;-84
2022/03/22 14:45:30;;;;;;;15.68;9.27;;;;;;;;;;4984504;28;20339;-86
2022/03/22 14:47:57;;;;;;;11.35;9.05;;;;;;;;;;4977167;28;20049;-85
2022/03/22 14:50:24;;;;;;;13.90;8.73;;;;;;;;;;4996608;28;20421;-85
2022/03/22 14:55:36;;;;;;;17.83;9.65;;;;;;;;;;5000281;28;20045;-84
2022/03/22 15:00:50;;;;;;;16.17;9.30;;;;;;;;;;4982295;28;20408;-84
2022/03/22 15:03:18;;;;;;;12.45;9.27;;;;;;;;;;4982237;28;20026;-82
2022/03/22 15:05:52;;;;;;;12.75;9.60;;;;;;;;;;4980414;28;20493;-84
2022/03/22 15:08:20;;;;;;;18.95;10.85;;;;;;;;;;4984763;28;20507;-83
2022/03/22 15:10:47;;;;;;;12.73;8.80;;;;;;;;;;4982405;28;20041;-84
2022/03/22 15:13:13;;;;;;;11.93;9.57;;;;;;;;;;4995847;28;20483;-84
2022/03/22 15:15:39;;;;;;;17.35;9.60;;;;;;;;;;4976323;28;20402;-85
2022/03/22 15:18:07;;;;;;;16.95;9.95;;;;;;;;;;4997113;28;20030;-85
2022/03/22 15:27:29;;;;;;;15.93;10.23;;;;;;;;;;5434287;22;20061;-85
2022/03/22 15:30:01;;;;;;;11.63;9.60;;;;;;;;;;5034389;28;20121;-85
2022/03/22 15:35:29;;;;;;;15.45;9.85;;;;;;;;;;5021173;28;20053;-85
2022/03/22 15:38:44;;;;;;;13.57;9.80;;;;;;;;;;5031876;28;20048;-85
2022/03/22 15:41:11;;;;;;;15.10;10.35;;;;;;;;;;5007626;28;20511;-86
2022/03/22 15:43:43;;;;;;;10.98;9.65;;;;;;;;;;5033013;28;20018;-85
2022/03/22 15:46:10;;;;;;;14.32;9.80;;;;;;;;;;5032954;28;20018;-85
2022/03/22 15:48:37;;;;;;;14.35;9.90;;;;;;;;;;5032966;28;20032;-85
2022/03/22 15:51:04;;;;;;;14.48;9.82;;;;;;;;;;5031367;28;20039;-84
2022/03/22 15:53:33;;;;;;;13.13;8.90;;;;;;;;;;5032830;28;20224;-85
2022/03/22 15:56:00;;;;;;;10.82;9.45;;;;;;;;;;5033161;28;20048;-86
2022/03/22 15:58:26;;;;;;;11.10;8.57;;;;;;;;;;5032350;28;20025;-85
2022/03/22 16:00:52;;;;;;;11.18;8.90;;;;;;;;;;5032724;28;20389;-86
2022/03/22 16:03:18;;;;;;;14.23;10.43;;;;;;;;;;5041216;28;20021;-85